Cedar Ravine, California
Current Conditions -  °F | °C
As of 4:55 AM on Sunday 21 Dec 2014 (Local Time) from KPVF Reporting Station
Overcast Overcast  
Wind Chill: 46°   Ceiling: 300
Heat Index: 48°   Visibility: 0.5mi
Dew Point: 48°   Wind: 5mph
Humidity: 100%   Direction: 170°S
Pressure: 30.28"   Gusts: NA
Location:  38.7308°N, 120.774°W
Report Text: KPVF 211255Z AUTO 17004KT 1/2SM OVC003 09/09 A3028 RMK AO1 P0001
Loading
Personal Weather Stations






























Interactive Weather Map New forecast layout! Learn more

10-Day Weather Forecast

Advertisements
Track Severe Weather on mobile